createdAt,value
2018-09-15T00:00:53.722Z,59.33
2018-09-15T00:01:53.908Z,59.08
2018-09-15T00:02:54.100Z,58.11
2018-09-15T00:03:54.287Z,63.23
2018-09-15T00:04:54.477Z,60.06
2018-09-15T00:05:54.678Z,59.81
2018-09-15T00:06:54.853Z,57.86
2018-09-15T00:07:55.038Z,59.08
2018-09-15T00:08:55.231Z,59.81
2018-09-15T00:09:55.415Z,55.18
2018-09-15T00:10:55.607Z,60.06
2018-09-15T00:11:55.799Z,59.33
2018-09-15T00:12:55.986Z,60.30
2018-09-15T00:13:56.177Z,60.55
2018-09-15T00:14:56.371Z,59.57
2018-09-15T00:15:56.560Z,56.64
2018-09-15T00:16:56.745Z,62.01
2018-09-15T00:17:56.933Z,62.26
2018-09-15T00:18:57.123Z,59.33
2018-09-15T00:19:57.317Z,59.08
2018-09-15T00:20:57.513Z,57.86
2018-09-15T00:21:57.705Z,58.84
2018-09-15T00:22:57.946Z,58.59
2018-09-15T00:23:58.085Z,63.48
2018-09-15T00:24:58.278Z,60.06
2018-09-15T00:25:58.469Z,60.30
2018-09-15T00:26:58.660Z,56.88
2018-09-15T00:27:58.844Z,61.77
2018-09-15T00:28:59.034Z,64.94
2018-09-15T00:29:59.224Z,58.59
2018-09-15T00:30:59.424Z,62.74
2018-09-15T00:31:59.617Z,62.74
2018-09-15T00:32:59.807Z,60.30
2018-09-15T00:33:59.999Z,60.79
2018-09-15T00:35:00.187Z,58.84
2018-09-15T00:36:00.375Z,61.77
2018-09-15T00:37:00.559Z,61.28
2018-09-15T00:38:00.750Z,59.81
2018-09-15T00:39:00.981Z,59.08
2018-09-15T00:40:01.128Z,56.88
2018-09-15T00:41:01.320Z,56.40
2018-09-15T00:42:01.504Z,59.81
2018-09-15T00:43:01.696Z,61.77
2018-09-15T00:44:01.887Z,59.81
2018-09-15T00:45:02.074Z,60.79
2018-09-15T00:46:02.264Z,62.50
2018-09-15T00:47:02.456Z,61.77
2018-09-15T00:48:02.656Z,62.01
2018-09-15T00:49:02.843Z,58.11
2018-09-15T00:50:03.085Z,58.59
2018-09-15T00:51:03.270Z,64.45
2018-09-15T00:52:03.461Z,58.59
2018-09-15T00:53:03.653Z,58.59
2018-09-15T00:54:03.837Z,62.50
2018-09-15T00:55:04.028Z,61.04
2018-09-15T00:56:04.223Z,58.35
2018-09-15T00:57:04.402Z,56.88
2018-09-15T00:58:04.593Z,59.33
2018-09-15T00:59:04.781Z,57.13
2018-09-15T01:00:04.978Z,58.11
2018-09-15T01:01:05.204Z,59.33
2018-09-15T01:02:05.357Z,59.08
2018-09-15T01:03:05.538Z,58.84
2018-09-15T01:04:05.737Z,58.84
2018-09-15T01:05:05.909Z,60.30
2018-09-15T01:06:06.101Z,60.79
2018-09-15T01:07:06.283Z,55.91
2018-09-15T01:08:06.472Z,59.08
2018-09-15T01:09:06.667Z,55.18
2018-09-15T01:10:06.855Z,59.57
2018-09-15T01:11:07.038Z,59.08
2018-09-15T01:12:07.257Z,62.26
2018-09-15T01:13:07.421Z,61.04
2018-09-15T01:14:07.696Z,61.52
2018-09-15T01:15:07.795Z,62.50
2018-09-15T01:16:07.974Z,62.99
2018-09-15T01:17:08.166Z,55.91
2018-09-15T01:18:08.356Z,61.77
2018-09-15T01:19:08.540Z,59.81
2018-09-15T01:20:08.773Z,53.96
2018-09-15T01:21:08.916Z,56.64
2018-09-15T01:22:09.108Z,56.64
2018-09-15T01:23:09.318Z,57.37
2018-09-15T01:24:09.484Z,55.18
2018-09-15T01:25:09.675Z,58.84
2018-09-15T01:26:09.947Z,57.86
2018-09-15T01:27:10.059Z,60.79
2018-09-15T01:28:10.249Z,66.16
2018-09-15T01:29:10.436Z,60.55
2018-09-15T01:30:10.626Z,61.28
2018-09-15T01:31:10.816Z,55.66
2018-09-15T01:32:11.003Z,57.37
2018-09-15T01:33:11.190Z,62.26
2018-09-15T01:34:11.379Z,61.52
2018-09-15T01:35:11.580Z,57.62
2018-09-15T01:36:11.772Z,59.81
2018-09-15T01:37:11.949Z,62.26
2018-09-15T01:38:12.146Z,58.59
2018-09-15T01:39:12.328Z,57.62
2018-09-15T01:40:12.518Z,63.23
2018-09-15T01:41:12.710Z,58.11
2018-09-15T01:42:12.894Z,60.55
2018-09-15T01:43:13.084Z,61.77
2018-09-15T01:44:13.269Z,58.11
2018-09-15T01:45:13.459Z,61.52
2018-09-15T01:46:13.648Z,58.11
2018-09-15T01:47:13.831Z,58.35
2018-09-15T01:48:14.023Z,60.06
2018-09-15T01:49:14.209Z,62.74
2018-09-15T01:50:14.398Z,57.86
2018-09-15T01:51:14.599Z,59.08
2018-09-15T01:52:14.796Z,58.35
2018-09-15T01:53:14.971Z,60.79
2018-09-15T01:54:15.158Z,60.30
2018-09-15T01:55:15.352Z,61.04
2018-09-15T01:56:15.549Z,58.11
2018-09-15T01:57:15.741Z,56.88
2018-09-15T01:58:15.926Z,62.99
2018-09-15T01:59:16.100Z,58.59
2018-09-15T02:00:16.286Z,61.28
2018-09-15T02:01:16.473Z,58.35
2018-09-15T02:02:16.667Z,59.81
2018-09-15T02:03:16.859Z,59.33
2018-09-15T02:04:17.041Z,63.23
2018-09-15T02:05:17.223Z,62.01
2018-09-15T02:06:17.408Z,60.06
2018-09-15T02:07:17.608Z,53.71
2018-09-15T02:08:17.791Z,60.30
2018-09-15T02:09:17.980Z,60.30
2018-09-15T02:10:18.175Z,55.91
2018-09-15T02:11:18.361Z,61.77
2018-09-15T02:12:18.555Z,59.81
2018-09-15T02:13:18.742Z,60.79
2018-09-15T02:14:18.931Z,60.06
2018-09-15T02:15:19.113Z,60.30
2018-09-15T02:16:19.316Z,59.57
2018-09-15T02:17:19.493Z,58.35
2018-09-15T02:18:19.689Z,60.55
2018-09-15T02:19:19.869Z,63.48
2018-09-15T02:20:20.061Z,59.57
2018-09-15T02:21:20.239Z,60.30
2018-09-15T02:22:20.437Z,59.33
2018-09-15T02:23:20.630Z,60.79
2018-09-15T02:24:20.815Z,60.79
2018-09-15T02:25:21.008Z,63.72
2018-09-15T02:26:21.193Z,59.33
2018-09-15T02:27:21.385Z,57.86
2018-09-15T02:28:21.571Z,61.52
2018-09-15T02:29:21.766Z,60.55
2018-09-15T02:30:21.950Z,59.08
2018-09-15T02:31:22.153Z,60.30
2018-09-15T02:32:22.327Z,58.84
2018-09-15T02:33:22.512Z,60.79
2018-09-15T02:34:22.704Z,58.84
2018-09-15T02:35:22.889Z,58.11
2018-09-15T02:36:23.081Z,62.01
2018-09-15T02:37:23.263Z,60.79
2018-09-15T02:38:23.456Z,63.96
2018-09-15T02:39:23.642Z,64.21
2018-09-15T02:40:23.829Z,60.79
2018-09-15T02:41:24.012Z,58.11
2018-09-15T02:42:24.212Z,60.55
2018-09-15T02:43:24.405Z,59.81
2018-09-15T02:44:24.591Z,58.35
2018-09-15T02:45:24.778Z,61.52
2018-09-15T02:46:24.966Z,60.30
2018-09-15T02:47:25.155Z,62.26
2018-09-15T02:48:25.341Z,59.08
2018-09-15T02:49:25.535Z,59.81
2018-09-15T02:50:25.719Z,61.28
2018-09-15T02:51:25.903Z,62.01
2018-09-15T02:52:26.097Z,61.77
2018-09-15T02:53:26.281Z,56.88
2018-09-15T02:54:26.472Z,58.35
2018-09-15T02:55:26.665Z,63.96
2018-09-15T02:56:26.849Z,59.57
2018-09-15T02:57:27.034Z,56.40
2018-09-15T02:58:27.224Z,54.44
2018-09-15T02:59:27.415Z,59.08
2018-09-15T03:00:27.601Z,55.91
2018-09-15T03:01:27.795Z,61.77
2018-09-15T03:02:27.984Z,61.28
2018-09-15T03:03:28.177Z,61.28
2018-09-15T03:04:28.365Z,58.84
2018-09-15T03:05:28.597Z,61.77
2018-09-15T03:06:28.738Z,61.77
2018-09-15T03:07:28.928Z,61.04
2018-09-15T03:08:29.113Z,60.55
2018-09-15T03:09:29.300Z,60.79
2018-09-15T03:10:29.491Z,62.01
2018-09-15T03:11:29.675Z,64.70
2018-09-15T03:12:29.864Z,66.65
2018-09-15T03:13:30.051Z,62.99
2018-09-15T03:14:30.247Z,62.01
2018-09-15T03:15:30.430Z,63.96
2018-09-15T03:16:30.615Z,63.48
2018-09-15T03:17:30.806Z,58.84
2018-09-15T03:18:30.994Z,60.30
2018-09-15T03:19:31.250Z,58.35
2018-09-15T03:20:31.309Z,58.11
2018-09-15T03:21:31.497Z,60.30
2018-09-15T03:22:31.684Z,59.81
2018-09-15T03:23:31.876Z,57.37
2018-09-15T03:24:32.059Z,58.59
2018-09-15T03:25:32.249Z,60.79
2018-09-15T03:26:32.436Z,63.48
2018-09-15T03:27:32.627Z,60.06
2018-09-15T03:28:32.812Z,62.99
2018-09-15T03:29:33.015Z,57.13
2018-09-15T03:30:33.190Z,57.62
2018-09-15T03:31:33.377Z,58.35
2018-09-15T03:32:33.568Z,60.55
2018-09-15T03:33:33.756Z,63.48
2018-09-15T03:34:33.939Z,62.99
2018-09-15T03:35:34.132Z,62.26
2018-09-15T03:36:34.320Z,58.84
2018-09-15T03:37:34.502Z,60.06
2018-09-15T03:38:34.692Z,65.19
2018-09-15T03:39:34.877Z,60.79
2018-09-15T03:40:35.063Z,61.77
2018-09-15T03:41:35.283Z,61.77
2018-09-15T03:42:35.438Z,62.50
2018-09-15T03:43:35.626Z,62.26
2018-09-15T03:44:35.812Z,61.52
2018-09-15T03:45:36.000Z,62.74
2018-09-15T03:46:36.186Z,60.06
2018-09-15T03:47:36.391Z,60.06
2018-09-15T03:48:36.578Z,62.01
2018-09-15T03:49:36.771Z,60.30
2018-09-15T03:50:36.954Z,60.79
2018-09-15T03:51:37.133Z,59.57
2018-09-15T03:52:37.324Z,62.74
2018-09-15T03:53:37.508Z,61.52
2018-09-15T03:54:37.701Z,61.28
2018-09-15T03:55:37.888Z,58.59
2018-09-15T03:56:38.073Z,58.84
2018-09-15T03:57:38.255Z,59.57
2018-09-15T03:58:38.450Z,60.06
2018-09-15T03:59:38.637Z,59.81
2018-09-15T04:00:38.816Z,55.66
2018-09-15T04:01:39.004Z,60.79
2018-09-15T04:02:39.194Z,65.67
2018-09-15T04:03:39.383Z,64.45
2018-09-15T04:04:39.565Z,62.01
2018-09-15T04:05:39.756Z,59.33
2018-09-15T04:06:39.943Z,61.28
2018-09-15T04:07:40.137Z,60.55
2018-09-15T04:08:40.323Z,60.06
2018-09-15T04:09:40.511Z,63.23
2018-09-15T04:10:40.701Z,66.65
2018-09-15T04:11:40.890Z,62.01
2018-09-15T04:12:41.072Z,61.77
2018-09-15T04:13:41.258Z,62.01
2018-09-15T04:14:41.437Z,61.28
2018-09-15T04:15:41.618Z,59.81
2018-09-15T04:16:41.807Z,62.01
2018-09-15T04:17:41.994Z,61.52
2018-09-15T04:18:42.189Z,61.28
2018-09-15T04:19:42.378Z,62.01
2018-09-15T04:20:42.562Z,63.23
2018-09-15T04:21:42.753Z,64.45
2018-09-15T04:22:42.941Z,64.94
2018-09-15T04:23:43.127Z,63.23
2018-09-15T04:24:43.317Z,63.72
2018-09-15T04:25:43.503Z,61.52
2018-09-15T04:26:43.688Z,60.06
2018-09-15T04:27:43.873Z,62.50
2018-09-15T04:28:44.066Z,60.55
2018-09-15T04:29:44.256Z,65.92
2018-09-15T04:30:44.439Z,60.79
2018-09-15T04:31:44.624Z,61.77
2018-09-15T04:32:44.806Z,68.85
2018-09-15T04:33:44.994Z,63.48
2018-09-15T04:34:45.180Z,60.79
2018-09-15T04:35:45.371Z,62.50
2018-09-15T04:36:45.558Z,68.85
2018-09-15T04:37:45.744Z,65.43
2018-09-15T04:38:45.931Z,65.19
2018-09-15T04:39:46.111Z,63.23
2018-09-15T04:40:46.321Z,61.28
2018-09-15T04:41:46.539Z,68.12
2018-09-15T04:42:46.681Z,63.23
2018-09-15T04:43:46.881Z,61.77
2018-09-15T04:44:47.065Z,59.81
2018-09-15T04:45:47.257Z,62.74
2018-09-15T04:46:47.457Z,62.01
2018-09-15T04:47:47.648Z,64.21
2018-09-15T04:48:47.830Z,57.86
2018-09-15T04:49:48.019Z,60.79
2018-09-15T04:50:48.209Z,62.01
2018-09-15T04:51:48.398Z,60.30
2018-09-15T04:52:48.710Z,63.23
2018-09-15T04:53:48.764Z,61.28
2018-09-15T04:54:48.953Z,61.04
2018-09-15T04:55:49.147Z,61.52
2018-09-15T04:56:49.334Z,63.72
2018-09-15T04:57:49.586Z,62.74
2018-09-15T04:58:49.884Z,61.77
2018-09-15T04:59:49.951Z,60.79
2018-09-15T05:00:50.137Z,61.28
2018-09-15T05:01:50.322Z,60.06
2018-09-15T05:02:50.516Z,63.72
2018-09-15T05:03:50.700Z,60.55
2018-09-15T05:04:50.916Z,61.52
2018-09-15T05:05:51.069Z,63.72
2018-09-15T05:06:51.269Z,56.40
2018-09-15T05:07:51.449Z,62.99
2018-09-15T05:08:51.635Z,60.79
2018-09-15T05:09:51.828Z,61.28
2018-09-15T05:10:52.018Z,62.74
2018-09-15T05:11:52.213Z,67.63
2018-09-15T05:12:52.457Z,65.67
2018-09-15T05:13:52.578Z,62.26
2018-09-15T05:14:52.766Z,60.55
2018-09-15T05:15:52.956Z,58.84
2018-09-15T05:16:53.144Z,62.50
2018-09-15T05:17:53.330Z,60.55
2018-09-15T05:18:53.516Z,60.79
2018-09-15T05:19:53.706Z,64.70
2018-09-15T05:20:53.894Z,64.94
2018-09-15T05:21:54.088Z,60.06
2018-09-15T05:22:54.267Z,60.06
2018-09-15T05:23:54.459Z,60.79
2018-09-15T05:24:54.651Z,63.48
2018-09-15T05:25:54.838Z,58.11
2018-09-15T05:26:55.023Z,63.72
2018-09-15T05:27:55.217Z,60.06
2018-09-15T05:28:55.402Z,63.48
2018-09-15T05:29:55.588Z,62.74
2018-09-15T05:30:55.769Z,62.74
2018-09-15T05:31:55.966Z,62.26
2018-09-15T05:32:56.157Z,61.52
2018-09-15T05:33:56.352Z,62.01
2018-09-15T05:34:56.539Z,62.50
2018-09-15T05:35:56.751Z,62.26
2018-09-15T05:36:56.918Z,61.52
2018-09-15T05:37:57.128Z,62.74
2018-09-15T05:38:57.321Z,61.77
2018-09-15T05:39:57.519Z,60.06
2018-09-15T05:40:57.704Z,63.23
2018-09-15T05:41:57.888Z,62.26
2018-09-15T05:42:58.075Z,63.48
2018-09-15T05:43:58.262Z,62.99
2018-09-15T05:44:58.440Z,60.55
2018-09-15T05:45:58.632Z,61.77
2018-09-15T05:46:58.816Z,59.57
2018-09-15T05:47:59.004Z,59.57
2018-09-15T05:48:59.190Z,58.84
2018-09-15T05:49:59.371Z,67.63
2018-09-15T05:50:59.563Z,60.55
2018-09-15T05:51:59.754Z,65.43
2018-09-15T05:52:59.943Z,60.30
2018-09-15T05:54:00.128Z,63.96
2018-09-15T05:55:00.315Z,60.06
2018-09-15T05:56:00.530Z,62.26
2018-09-15T05:57:00.691Z,63.23
2018-09-15T05:58:00.882Z,62.99
2018-09-15T05:59:01.066Z,63.96
2018-09-15T06:00:01.266Z,62.50
2018-09-15T06:01:01.455Z,66.41
2018-09-15T06:02:01.643Z,64.70
2018-09-15T06:03:01.831Z,62.01
2018-09-15T06:04:02.031Z,63.72
2018-09-15T06:05:02.208Z,64.45
2018-09-15T06:06:02.401Z,61.52
2018-09-15T06:07:02.596Z,69.09
2018-09-15T06:08:02.790Z,63.23
2018-09-15T06:09:02.979Z,60.06
2018-09-15T06:10:03.175Z,60.30
2018-09-15T06:11:03.364Z,72.02
2018-09-15T06:12:03.559Z,59.57
2018-09-15T06:13:03.751Z,67.63
2018-09-15T06:14:03.940Z,58.84
2018-09-15T06:15:04.134Z,58.11
2018-09-15T06:16:04.322Z,64.70
2018-09-15T06:17:04.530Z,65.19
2018-09-15T06:18:04.731Z,63.48
2018-09-15T06:19:04.926Z,63.23
2018-09-15T06:20:05.124Z,61.28
2018-09-15T06:21:05.312Z,60.30
2018-09-15T06:22:05.560Z,60.55
2018-09-15T06:23:05.713Z,61.04
2018-09-15T06:24:05.895Z,58.59
2018-09-15T06:25:06.093Z,60.55
2018-09-15T06:26:06.276Z,62.50
2018-09-15T06:27:06.482Z,58.84
2018-09-15T06:28:06.675Z,61.52
2018-09-15T06:29:06.879Z,61.77
2018-09-15T06:30:07.072Z,59.57
2018-09-15T06:31:07.266Z,59.57
2018-09-15T06:32:07.474Z,62.01
2018-09-15T06:33:07.674Z,69.34
2018-09-15T06:34:08.239Z,58.84
2018-09-15T06:35:08.068Z,61.28
2018-09-15T06:36:08.268Z,63.48
2018-09-15T06:37:08.542Z,61.52
2018-09-15T06:38:19.201Z,61.77
2018-09-15T06:39:08.886Z,62.74
2018-09-15T06:40:09.104Z,60.55
2018-09-15T06:41:10.747Z,61.04
2018-09-15T06:42:09.432Z,60.06
2018-09-15T06:43:09.629Z,62.74
2018-09-15T06:44:09.822Z,60.55
2018-09-15T06:45:10.052Z,62.99
2018-09-15T06:46:10.815Z,60.79
2018-09-15T06:47:10.382Z,61.04
2018-09-15T06:48:10.586Z,60.79
2018-09-15T06:49:11.317Z,63.23
2018-09-15T06:50:11.051Z,59.33
2018-09-15T06:51:11.241Z,64.94
2018-09-15T06:52:11.441Z,63.23
2018-09-15T06:53:11.635Z,60.79
2018-09-15T06:54:11.832Z,61.52
2018-09-15T06:55:12.043Z,63.96
2018-09-15T06:56:12.228Z,60.06
2018-09-15T06:57:12.430Z,60.79
2018-09-15T06:58:12.644Z,63.48
2018-09-15T06:59:12.829Z,60.06
2018-09-15T07:00:13.043Z,60.30
2018-09-15T07:01:13.243Z,62.50
2018-09-15T07:02:13.439Z,62.50
2018-09-15T07:03:13.635Z,73.00
2018-09-15T07:04:13.861Z,67.87
2018-09-15T07:05:14.059Z,62.99
2018-09-15T07:06:14.263Z,62.50
2018-09-15T07:07:14.455Z,59.08
2018-09-15T07:08:14.651Z,59.81
2018-09-15T07:09:14.853Z,60.55
2018-09-15T07:10:15.043Z,62.99
2018-09-15T07:11:15.243Z,62.50
2018-09-15T07:12:15.445Z,63.72
2018-09-15T07:13:15.634Z,60.06
2018-09-15T07:14:15.845Z,60.30
2018-09-15T07:15:16.039Z,60.30
2018-09-15T07:16:16.237Z,62.01
2018-09-15T07:17:16.443Z,62.50
2018-09-15T07:18:16.641Z,63.23
2018-09-15T07:19:16.841Z,61.52
2018-09-15T07:20:17.044Z,60.06
2018-09-15T07:21:17.241Z,60.79
2018-09-15T07:22:17.447Z,67.14
2018-09-15T07:23:17.649Z,61.28
2018-09-15T07:24:17.842Z,60.55
2018-09-15T07:25:18.046Z,61.77
2018-09-15T07:26:18.247Z,64.21
2018-09-15T07:27:18.448Z,61.04
2018-09-15T07:28:18.640Z,60.55
2018-09-15T07:29:18.855Z,62.01
2018-09-15T07:30:19.055Z,61.04
2018-09-15T07:31:19.283Z,61.52
2018-09-15T07:32:19.464Z,65.19
2018-09-15T07:33:19.662Z,61.28
2018-09-15T07:34:19.870Z,61.77
2018-09-15T07:35:20.091Z,62.50
2018-09-15T07:36:20.299Z,61.04
2018-09-15T07:37:20.498Z,60.55
2018-09-15T07:38:20.702Z,62.01
2018-09-15T07:39:20.899Z,62.01
2018-09-15T07:40:21.105Z,62.74
2018-09-15T07:41:21.307Z,61.04
2018-09-15T07:45:53.525Z,60.30
2018-09-15T07:46:53.728Z,63.72
2018-09-15T07:47:53.923Z,61.04
2018-09-15T07:48:54.124Z,60.30
2018-09-15T07:49:54.318Z,60.79
2018-09-15T07:50:54.524Z,61.77
2018-09-15T07:51:54.728Z,62.26
2018-09-15T07:52:54.928Z,63.23
2018-09-15T07:53:55.135Z,61.52
2018-09-15T07:54:55.330Z,62.26
2018-09-15T07:55:55.517Z,61.28
2018-09-15T07:56:55.721Z,68.36
2018-09-15T07:57:56.102Z,63.23
2018-09-15T07:58:56.117Z,61.52
2018-09-15T07:59:56.320Z,62.01
2018-09-15T08:00:56.524Z,61.77
2018-09-15T08:01:56.749Z,62.01
2018-09-15T08:02:56.913Z,61.77
2018-09-15T08:03:57.115Z,65.19
2018-09-15T08:04:57.316Z,61.28
2018-09-15T08:05:57.515Z,72.27
2018-09-15T08:06:57.723Z,66.41
2018-09-15T08:07:57.930Z,58.35
2018-09-15T08:08:58.142Z,80.08
2018-09-15T08:09:58.351Z,82.28
2018-09-15T08:10:58.610Z,81.05
2018-09-15T08:11:58.761Z,81.54
2018-09-15T08:12:58.965Z,86.18
2018-09-15T08:13:59.167Z,89.60
2018-09-15T08:14:59.384Z,80.32
2018-09-15T08:15:59.583Z,79.59
2018-09-15T08:16:59.786Z,60.79
2018-09-15T08:17:59.992Z,63.23
2018-09-15T08:19:00.191Z,59.57
2018-09-15T08:20:00.388Z,59.81
2018-09-15T08:21:00.592Z,61.52
2018-09-15T08:22:00.790Z,69.09
2018-09-15T08:23:00.996Z,60.30
2018-09-15T08:24:01.196Z,71.29
2018-09-15T08:25:01.397Z,65.19
2018-09-15T08:26:01.698Z,66.65
2018-09-15T08:27:01.802Z,65.92
2018-09-15T08:28:01.997Z,63.48
2018-09-15T08:29:02.206Z,66.65
2018-09-15T08:30:02.412Z,84.23
2018-09-15T08:31:02.613Z,82.03
2018-09-15T08:32:02.895Z,80.81
2018-09-15T08:33:03.029Z,83.98
2018-09-15T08:34:03.231Z,79.83
2018-09-15T08:35:03.447Z,78.13
2018-09-15T08:36:03.644Z,81.54
2018-09-15T08:37:03.839Z,78.86
2018-09-15T08:38:04.044Z,64.45
2018-09-15T08:39:04.248Z,74.95
2018-09-15T08:40:04.446Z,81.54
2018-09-15T08:41:04.650Z,79.35
2018-09-15T08:42:04.855Z,57.86
2018-09-15T08:43:05.064Z,58.11
2018-09-15T08:44:05.271Z,63.48
2018-09-15T08:45:05.473Z,56.64
2018-09-15T08:46:05.677Z,75.68
2018-09-15T08:47:05.876Z,84.47
2018-09-15T08:48:06.083Z,89.11
2018-09-15T08:49:06.296Z,65.19
2018-09-15T08:50:06.491Z,71.78
2018-09-15T08:51:06.694Z,78.61
2018-09-15T08:52:06.908Z,67.63
2018-09-15T08:53:07.117Z,58.59
2018-09-15T08:54:07.323Z,58.84
2018-09-15T08:55:07.514Z,70.80
2018-09-15T08:56:07.768Z,67.63
2018-09-15T08:57:07.924Z,65.67
2018-09-15T08:58:08.120Z,64.70
2018-09-15T08:59:08.323Z,59.33
2018-09-15T09:00:08.527Z,58.35
2018-09-15T09:01:08.730Z,79.59
2018-09-15T09:02:08.929Z,77.64
2018-09-15T09:03:09.130Z,82.52
2018-09-15T09:04:09.332Z,77.88
2018-09-15T09:05:09.534Z,80.57
2018-09-15T09:06:09.910Z,88.87
2018-09-15T09:07:09.961Z,81.79
2018-09-15T09:08:10.358Z,77.39
2018-09-15T09:09:10.368Z,81.79
2018-09-15T09:10:10.603Z,78.86
2018-09-15T09:11:10.899Z,78.86
2018-09-15T09:12:10.988Z,88.87
2018-09-15T09:13:11.203Z,80.32
2018-09-15T09:14:11.407Z,80.32
2018-09-15T09:15:11.612Z,72.75
2018-09-15T09:16:11.811Z,66.65
2018-09-15T09:17:12.015Z,65.92
2018-09-15T09:18:12.228Z,71.29
2018-09-15T09:19:12.430Z,74.71
2018-09-15T09:20:12.629Z,66.65
2018-09-15T09:21:12.837Z,67.38
2018-09-15T09:22:13.038Z,60.79
2018-09-15T09:23:13.828Z,69.58
2018-09-15T09:24:13.469Z,69.58
2018-09-15T09:25:13.682Z,60.06
2018-09-15T09:26:13.945Z,64.70
2018-09-15T09:27:14.083Z,68.85
2018-09-15T09:28:14.294Z,62.01
2018-09-15T09:29:14.492Z,64.21
2018-09-15T09:30:14.696Z,71.29
2018-09-15T09:31:14.896Z,63.23
2018-09-15T09:32:15.137Z,57.13
2018-09-15T09:33:15.345Z,60.30
2018-09-15T09:34:15.517Z,60.30
2018-09-15T09:35:15.715Z,60.55
2018-09-15T09:36:15.915Z,56.88
2018-09-15T09:37:16.116Z,56.88
2018-09-15T09:38:16.321Z,55.18
2018-09-15T09:39:16.519Z,55.18
2018-09-15T09:40:16.713Z,60.06
2018-09-15T09:41:16.983Z,63.72
2018-09-15T09:42:17.125Z,59.08
2018-09-15T09:43:17.334Z,60.55
2018-09-15T09:44:17.535Z,61.28
2018-09-15T09:45:17.734Z,60.55
2018-09-15T09:46:17.938Z,62.99
2018-09-15T09:47:18.152Z,60.06
2018-09-15T09:48:18.380Z,58.11
2018-09-15T09:49:18.548Z,56.88
2018-09-15T09:50:18.761Z,59.57
2018-09-15T09:51:18.959Z,59.57
2018-09-15T09:52:19.186Z,60.79
2018-09-15T09:53:19.372Z,56.64
2018-09-15T09:54:19.577Z,56.40
2018-09-15T09:55:19.772Z,58.84
2018-09-15T09:56:19.982Z,62.99
2018-09-15T09:57:20.186Z,61.28
2018-09-15T09:58:20.388Z,58.35
2018-09-15T09:59:20.589Z,57.86
2018-09-15T10:00:20.792Z,58.11
2018-09-15T10:01:21.027Z,58.35
2018-09-15T10:02:21.205Z,55.91
2018-09-15T10:03:21.416Z,58.35
2018-09-15T10:04:21.701Z,60.30
2018-09-15T10:05:21.842Z,60.30
2018-09-15T10:06:22.047Z,58.84
2018-09-15T10:07:22.253Z,60.79
2018-09-15T10:08:22.467Z,60.55
2018-09-15T10:09:22.659Z,58.59
2018-09-15T10:10:22.864Z,58.59
2018-09-15T10:11:23.078Z,59.08
2018-09-15T10:12:23.281Z,59.33
2018-09-15T10:13:23.480Z,61.28
2018-09-15T10:14:23.682Z,66.16
2018-09-15T10:15:23.883Z,59.57
2018-09-15T10:16:24.095Z,60.30
2018-09-15T10:17:24.301Z,62.26
2018-09-15T10:18:24.498Z,62.99
2018-09-15T10:19:24.699Z,60.79
2018-09-15T10:20:24.897Z,64.94
2018-09-15T10:21:25.110Z,57.37
2018-09-15T10:22:25.301Z,58.11
2018-09-15T10:23:25.505Z,58.35
2018-09-15T10:24:25.705Z,55.91
2018-09-15T10:25:25.899Z,57.62
2018-09-15T10:26:26.107Z,56.88
2018-09-15T10:27:26.304Z,57.62
2018-09-15T10:28:26.508Z,59.57
2018-09-15T10:29:26.716Z,59.08
2018-09-15T10:30:26.914Z,57.13
2018-09-15T10:31:27.128Z,58.59
2018-09-15T10:32:27.328Z,57.86
2018-09-15T10:33:27.530Z,59.33
2018-09-15T10:34:27.732Z,59.81
2018-09-15T10:35:27.927Z,57.13
2018-09-15T10:36:28.135Z,59.33
2018-09-15T10:37:28.332Z,58.11
2018-09-15T10:38:28.575Z,56.64
2018-09-15T10:39:28.735Z,58.11
2018-09-15T10:40:28.977Z,59.81
2018-09-15T10:41:29.148Z,58.11
2018-09-15T10:42:29.337Z,56.40
2018-09-15T10:43:29.543Z,55.18
2018-09-15T10:44:29.747Z,61.52
2018-09-15T10:45:29.946Z,58.84
2018-09-15T10:46:30.198Z,60.79
2018-09-15T10:47:30.353Z,63.23
2018-09-15T10:48:30.567Z,60.79
2018-09-15T10:49:30.766Z,57.13
2018-09-15T10:50:30.970Z,58.11
2018-09-15T10:51:31.174Z,59.08
2018-09-15T10:52:31.378Z,61.28
2018-09-15T10:53:31.584Z,60.30
2018-09-15T10:54:31.803Z,58.35
2018-09-15T10:55:32.008Z,58.59
2018-09-15T10:56:32.207Z,62.01
2018-09-15T10:57:32.407Z,61.28
2018-09-15T10:58:32.607Z,59.08
2018-09-15T10:59:32.805Z,63.48
2018-09-15T11:00:33.045Z,60.55
2018-09-15T11:01:33.213Z,62.99
2018-09-15T11:02:33.430Z,54.93
2018-09-15T11:03:33.627Z,62.99
2018-09-15T11:04:33.835Z,63.23
2018-09-15T11:05:34.030Z,62.01
2018-09-15T11:06:34.224Z,58.35
2018-09-15T11:07:34.422Z,59.57
2018-09-15T11:08:34.620Z,55.91
2018-09-15T11:09:34.821Z,58.35
2018-09-15T11:10:35.020Z,56.15
2018-09-15T11:11:35.227Z,56.15
2018-09-15T11:12:35.421Z,57.62
2018-09-15T11:13:35.703Z,57.37
2018-09-15T11:14:35.818Z,57.86
2018-09-15T11:15:36.017Z,58.11
2018-09-15T11:16:36.214Z,56.88
2018-09-15T11:17:36.414Z,56.64
2018-09-15T11:18:36.614Z,61.52
2018-09-15T11:19:36.808Z,62.50
2018-09-15T11:20:37.009Z,59.57
2018-09-15T11:21:37.207Z,59.57
2018-09-15T11:22:37.450Z,62.01
2018-09-15T11:23:37.606Z,58.11
2018-09-15T11:24:37.802Z,61.04
2018-09-15T11:25:37.999Z,58.59
2018-09-15T11:26:38.200Z,60.79
2018-09-15T11:27:38.397Z,63.23
2018-09-15T11:28:38.658Z,59.08
2018-09-15T11:29:38.793Z,58.11
2018-09-15T11:30:38.996Z,59.57
2018-09-15T11:31:39.198Z,60.30
2018-09-15T11:32:39.391Z,61.77
2018-09-15T11:33:39.590Z,58.84
2018-09-15T11:34:39.791Z,58.59
2018-09-15T11:35:39.988Z,62.99
2018-09-15T11:36:40.187Z,61.52
2018-09-15T11:37:40.384Z,62.01
2018-09-15T11:38:40.586Z,66.65
2018-09-15T11:39:40.781Z,60.55
2018-09-15T11:40:40.975Z,67.14
2018-09-15T11:41:41.186Z,61.28
2018-09-15T11:42:41.381Z,59.81
2018-09-15T11:43:41.619Z,59.81
2018-09-15T11:44:41.785Z,59.33
2018-09-15T11:45:41.976Z,59.81
2018-09-15T11:46:42.172Z,59.81
2018-09-15T11:47:42.375Z,58.11
2018-09-15T11:48:42.575Z,58.35
2018-09-15T11:49:42.774Z,58.84
2018-09-15T11:50:42.981Z,58.84
2018-09-15T11:51:43.182Z,56.64
2018-09-15T11:52:43.378Z,62.01
2018-09-15T11:53:43.612Z,58.84
2018-09-15T11:54:43.779Z,59.33
2018-09-15T11:55:43.975Z,69.09
2018-09-15T11:56:44.175Z,60.79
2018-09-15T11:57:44.370Z,58.84
2018-09-15T11:58:44.573Z,59.81
2018-09-15T11:59:44.768Z,56.88
2018-09-15T12:00:44.965Z,63.48
2018-09-15T12:01:45.164Z,61.04
2018-09-15T12:02:45.362Z,62.01
2018-09-15T12:03:45.562Z,59.57
2018-09-15T12:04:45.763Z,59.08
2018-09-15T12:05:45.955Z,63.48
2018-09-15T12:06:46.157Z,57.62
2018-09-15T12:07:46.400Z,60.55
2018-09-15T12:08:46.546Z,61.52
2018-09-15T12:09:46.740Z,59.33
2018-09-15T12:10:46.934Z,65.92
2018-09-15T12:11:47.132Z,69.58
2018-09-15T12:12:47.327Z,59.33
2018-09-15T12:13:47.525Z,62.01
2018-09-15T12:14:47.722Z,59.57
2018-09-15T12:15:47.942Z,60.55
2018-09-15T12:16:48.115Z,57.62
2018-09-15T12:17:48.318Z,58.84
2018-09-15T12:18:48.509Z,59.08
2018-09-15T12:19:48.708Z,58.35
2018-09-15T12:20:48.903Z,60.30
2018-09-15T12:21:49.108Z,66.65
2018-09-15T12:22:49.289Z,61.28
2018-09-15T12:23:49.484Z,59.08
2018-09-15T12:24:49.680Z,59.33
2018-09-15T12:25:49.878Z,68.12
2018-09-15T12:26:50.073Z,60.06
2018-09-15T12:27:50.319Z,57.37
2018-09-15T12:28:50.470Z,65.67
2018-09-15T12:29:50.677Z,58.35
2018-09-15T12:30:50.868Z,59.57
2018-09-15T12:31:51.063Z,59.57
2018-09-15T12:32:51.258Z,58.35
2018-09-15T12:33:51.460Z,58.59
2018-09-15T12:34:51.671Z,58.84
2018-09-15T12:35:51.863Z,61.28
2018-09-15T12:36:52.072Z,62.01
2018-09-15T12:37:52.270Z,62.01
2018-09-15T12:38:52.464Z,59.57
2018-09-15T12:39:52.675Z,60.30
2018-09-15T12:40:52.873Z,61.04
2018-09-15T12:41:53.065Z,61.28
2018-09-15T12:42:53.255Z,60.06
2018-09-15T12:43:53.458Z,60.06
2018-09-15T12:44:53.676Z,60.79
2018-09-15T12:45:53.855Z,59.33
2018-09-15T12:46:54.051Z,60.55
2018-09-15T12:47:54.251Z,60.06
2018-09-15T12:48:54.449Z,63.72
2018-09-15T12:49:54.642Z,60.79
2018-09-15T12:50:54.831Z,62.99
2018-09-15T12:51:55.041Z,58.84
2018-09-15T12:52:55.224Z,61.04
2018-09-15T12:53:55.426Z,61.28
2018-09-15T12:54:55.622Z,60.06
2018-09-15T12:55:55.810Z,59.57
2018-09-15T12:56:56.008Z,58.84
2018-09-15T12:57:56.289Z,59.81
2018-09-15T12:58:56.394Z,58.35